createdAt,value
2023-01-19T00:00:58.891Z,6.20
2023-01-19T00:03:27.198Z,9.77
2023-01-19T00:05:55.651Z,7.47
2023-01-19T00:08:23.835Z,8.57
2023-01-19T00:10:52.351Z,8.13
2023-01-19T00:13:20.759Z,8.55
2023-01-19T00:15:48.986Z,10.68
2023-01-19T00:18:18.471Z,7.45
2023-01-19T00:20:46.716Z,8.55
2023-01-19T00:23:15.503Z,9.77
2023-01-19T00:25:44.377Z,10.50
2023-01-19T00:28:14.378Z,7.03
2023-01-19T00:30:43.768Z,10.98
2023-01-19T00:33:13.910Z,11.77
2023-01-19T00:35:43.770Z,7.65
2023-01-19T00:38:12.674Z,9.93
2023-01-19T00:40:40.897Z,10.27
2023-01-19T00:43:08.142Z,7.60
2023-01-19T00:45:36.290Z,9.77
2023-01-19T00:48:04.667Z,8.20
2023-01-19T00:50:33.689Z,7.00
2023-01-19T00:53:03.528Z,5.30
2023-01-19T00:55:33.375Z,9.15
2023-01-19T00:58:02.956Z,4.68
2023-01-19T01:00:31.025Z,9.27
2023-01-19T01:02:59.748Z,9.23
2023-01-19T01:05:28.152Z,6.05
2023-01-19T01:07:56.374Z,8.73
2023-01-19T01:10:28.989Z,9.27
2023-01-19T01:12:59.019Z,4.97
2023-01-19T01:15:29.977Z,8.00
2023-01-19T01:17:58.067Z,10.80
2023-01-19T01:20:28.790Z,10.00
2023-01-19T01:22:59.135Z,11.60
2023-01-19T01:25:31.240Z,6.47
2023-01-19T01:27:59.538Z,5.70
2023-01-19T01:30:27.780Z,9.40
2023-01-19T01:32:56.334Z,4.88
2023-01-19T01:35:24.899Z,5.43
2023-01-19T01:37:53.144Z,7.90
2023-01-19T01:40:21.580Z,8.93
2023-01-19T01:42:51.207Z,10.02
2023-01-19T01:45:39.557Z,5.28
2023-01-19T01:48:11.795Z,6.78
2023-01-19T01:51:06.952Z,7.55
2023-01-19T01:53:37.674Z,7.20
2023-01-19T01:56:11.060Z,2.42
2023-01-19T01:58:41.315Z,8.35
2023-01-19T02:01:29.251Z,5.97
2023-01-19T02:03:58.780Z,3.58
2023-01-19T02:06:27.664Z,6.35
2023-01-19T02:09:18.041Z,9.88
2023-01-19T02:12:03.874Z,6.80
2023-01-19T02:14:33.474Z,6.45
2023-01-19T02:17:01.959Z,7.70
2023-01-19T02:19:35.258Z,3.70
2023-01-19T02:22:07.285Z,5.85
2023-01-19T02:24:37.588Z,14.07
2023-01-19T02:27:06.498Z,4.63
2023-01-19T02:29:36.412Z,5.57
2023-01-19T02:32:05.931Z,5.25
2023-01-19T02:34:34.126Z,4.50
2023-01-19T02:37:07.606Z,3.15
2023-01-19T02:39:40.212Z,4.90
2023-01-19T02:42:12.154Z,3.95
2023-01-19T02:44:45.233Z,5.30
2023-01-19T02:47:14.416Z,4.82
2023-01-19T02:49:42.547Z,3.58
2023-01-19T02:52:17.174Z,7.75
2023-01-19T02:55:09.648Z,5.72
2023-01-19T02:57:50.990Z,3.78
2023-01-19T03:00:26.076Z,7.85
2023-01-19T03:03:16.619Z,4.15
2023-01-19T03:05:59.097Z,9.83
2023-01-19T03:08:44.258Z,5.50
2023-01-19T03:11:15.470Z,4.95
2023-01-19T03:13:48.490Z,3.70
2023-01-19T03:16:22.970Z,3.72
2023-01-19T03:18:55.718Z,7.22
2023-01-19T03:21:27.897Z,3.38
2023-01-19T03:24:02.076Z,7.93
2023-01-19T03:26:37.462Z,3.25
2023-01-19T03:29:08.145Z,4.45
2023-01-19T03:31:37.321Z,6.10
2023-01-19T03:34:09.277Z,6.30
2023-01-19T03:36:41.872Z,5.88
2023-01-19T03:39:12.438Z,3.33
2023-01-19T03:41:44.360Z,11.57
2023-01-19T03:44:13.593Z,9.30
2023-01-19T03:46:42.032Z,5.15
2023-01-19T03:49:11.303Z,8.18
2023-01-19T03:51:40.326Z,1.63
2023-01-19T03:54:10.906Z,2.90
2023-01-19T03:56:39.305Z,6.78
2023-01-19T03:59:09.011Z,5.60
2023-01-19T04:01:37.413Z,4.95
2023-01-19T04:04:05.602Z,3.33
2023-01-19T04:06:33.803Z,4.90
2023-01-19T04:09:01.913Z,7.22
2023-01-19T04:11:29.972Z,8.20
2023-01-19T04:13:58.250Z,3.22
2023-01-19T04:16:27.784Z,3.83
2023-01-19T04:18:56.521Z,2.83
2023-01-19T04:21:24.799Z,5.40
2023-01-19T04:23:53.328Z,4.80
2023-01-19T04:26:22.082Z,7.15
2023-01-19T04:28:50.205Z,4.68
2023-01-19T04:31:19.332Z,5.47
2023-01-19T04:33:48.881Z,1.80
2023-01-19T04:36:17.093Z,4.30
2023-01-19T04:38:46.721Z,4.60
2023-01-19T04:41:14.816Z,4.78
2023-01-19T04:43:42.910Z,7.68
2023-01-19T04:46:11.172Z,2.40
2023-01-19T04:48:41.223Z,5.15
2023-01-19T04:51:10.897Z,7.68
2023-01-19T04:53:39.089Z,4.50
2023-01-19T04:56:07.459Z,4.95
2023-01-19T04:58:35.594Z,5.43
2023-01-19T05:01:08.201Z,5.10
2023-01-19T05:03:36.438Z,5.82
2023-01-19T05:06:04.893Z,1.52
2023-01-19T05:08:34.464Z,5.38
2023-01-19T05:11:02.618Z,3.28
2023-01-19T05:13:30.760Z,2.53
2023-01-19T05:15:59.034Z,8.50
2023-01-19T05:18:27.322Z,5.43
2023-01-19T05:20:55.796Z,11.90
2023-01-19T05:23:24.176Z,7.70
2023-01-19T05:25:55.351Z,4.03
2023-01-19T05:30:51.611Z,4.63
2023-01-19T05:33:20.015Z,4.07
2023-01-19T05:35:48.318Z,2.70
2023-01-19T05:38:20.834Z,5.80
2023-01-19T05:40:57.664Z,4.13
2023-01-19T05:43:27.270Z,5.53
2023-01-19T05:45:55.438Z,8.40
2023-01-19T05:48:23.608Z,4.20
2023-01-19T05:50:51.722Z,3.75
2023-01-19T05:53:19.875Z,2.90
2023-01-19T05:55:48.083Z,2.85
2023-01-19T05:58:16.240Z,2.45
2023-01-19T06:00:45.842Z,3.72
2023-01-19T06:03:20.034Z,5.90
2023-01-19T06:05:48.425Z,5.03
2023-01-19T06:08:16.644Z,4.63
2023-01-19T06:10:44.808Z,6.65
2023-01-19T06:13:12.991Z,4.72
2023-01-19T06:15:41.121Z,7.35
2023-01-19T06:18:10.847Z,5.25
2023-01-19T06:20:39.433Z,3.28
2023-01-19T06:23:07.715Z,7.13
2023-01-19T06:25:36.025Z,5.97
2023-01-19T06:28:04.255Z,8.55
2023-01-19T06:30:32.518Z,10.85
2023-01-19T06:33:01.059Z,4.60
2023-01-19T06:35:30.913Z,4.07
2023-01-19T06:37:59.041Z,10.80
2023-01-19T06:40:27.265Z,8.20
2023-01-19T06:42:55.473Z,5.50
2023-01-19T06:45:23.686Z,6.65
2023-01-19T06:47:51.786Z,6.57
2023-01-19T06:50:20.083Z,4.75
2023-01-19T06:52:52.272Z,6.45
2023-01-19T06:55:20.933Z,8.30
2023-01-19T06:57:57.757Z,4.30
2023-01-19T07:00:26.968Z,9.27
2023-01-19T07:02:55.154Z,2.67
2023-01-19T07:05:23.721Z,14.57
2023-01-19T07:07:57.071Z,5.57
2023-01-19T07:10:26.026Z,5.47
2023-01-19T07:13:14.195Z,6.65
2023-01-19T07:15:42.762Z,6.80
2023-01-19T07:18:10.909Z,4.78
2023-01-19T07:20:39.643Z,3.40
2023-01-19T07:23:09.519Z,8.18
2023-01-19T07:25:38.374Z,4.63
2023-01-19T07:28:06.512Z,5.65
2023-01-19T07:30:34.781Z,7.60
2023-01-19T07:33:03.502Z,9.32
2023-01-19T07:35:32.104Z,2.95
2023-01-19T07:38:00.636Z,6.57
2023-01-19T07:40:30.206Z,5.93
2023-01-19T07:42:58.924Z,10.68
2023-01-19T07:45:28.040Z,8.57
2023-01-19T07:47:56.849Z,7.60
2023-01-19T07:50:27.758Z,6.40
2023-01-19T07:52:56.178Z,7.07
2023-01-19T07:55:25.317Z,6.40
2023-01-19T07:57:54.955Z,6.20
2023-01-19T08:00:25.497Z,7.57
2023-01-19T08:02:54.331Z,8.38
2023-01-19T08:05:23.648Z,8.77
2023-01-19T08:07:54.193Z,6.60
2023-01-19T08:10:25.799Z,5.25
2023-01-19T08:12:55.649Z,7.13
2023-01-19T08:15:25.092Z,6.38
2023-01-19T08:17:58.020Z,6.22
2023-01-19T08:20:27.228Z,4.05
2023-01-19T08:23:00.564Z,5.68
2023-01-19T08:25:33.418Z,8.48
2023-01-19T08:28:03.804Z,11.90
2023-01-19T08:30:32.131Z,7.43
2023-01-19T08:33:05.181Z,9.52
2023-01-19T08:35:34.325Z,7.78
2023-01-19T08:38:03.045Z,8.35
2023-01-19T08:40:33.850Z,16.52
2023-01-19T08:43:07.869Z,9.85
2023-01-19T08:45:37.553Z,12.73
2023-01-19T08:48:06.413Z,3.08
2023-01-19T08:50:35.773Z,7.97
2023-01-19T08:53:06.747Z,6.30
2023-01-19T08:55:36.392Z,7.93
2023-01-19T08:58:08.030Z,6.68
2023-01-19T09:00:38.096Z,8.45
2023-01-19T09:03:07.557Z,9.50
2023-01-19T09:05:38.863Z,4.65
2023-01-19T09:10:39.188Z,12.80
2023-01-19T09:13:14.815Z,9.23
2023-01-19T09:15:44.599Z,12.18
2023-01-19T09:18:14.696Z,7.20
2023-01-19T09:20:43.766Z,9.32
2023-01-19T09:23:12.635Z,9.65
2023-01-19T09:25:42.081Z,8.30
2023-01-19T09:28:13.176Z,7.50
2023-01-19T09:30:44.421Z,8.95
2023-01-19T09:35:42.131Z,3.70
2023-01-19T09:38:11.264Z,8.35
2023-01-19T09:40:44.089Z,9.77
2023-01-19T09:43:26.419Z,8.80
2023-01-19T09:45:58.618Z,10.25
2023-01-19T09:48:44.126Z,7.68
2023-01-19T09:51:16.946Z,11.75
2023-01-19T09:54:06.922Z,7.40
2023-01-19T09:56:35.537Z,7.65
2023-01-19T09:59:20.566Z,9.43
2023-01-19T10:02:07.930Z,5.30
2023-01-19T10:04:40.989Z,8.38
2023-01-19T10:07:33.808Z,9.77
2023-01-19T10:10:17.539Z,10.70
2023-01-19T10:12:55.298Z,13.02
2023-01-19T10:15:36.705Z,6.95
2023-01-19T10:18:17.801Z,16.98
2023-01-19T10:20:51.161Z,12.45
2023-01-19T10:23:39.646Z,12.13
2023-01-19T10:26:13.312Z,10.55
2023-01-19T10:28:42.717Z,8.05
2023-01-19T10:31:13.721Z,6.40
2023-01-19T10:33:42.094Z,10.05
2023-01-19T10:36:19.066Z,6.70
2023-01-19T10:38:48.400Z,10.13
2023-01-19T10:41:22.443Z,8.30
2023-01-19T10:43:55.988Z,8.52
2023-01-19T10:46:36.050Z,7.15
2023-01-19T10:49:04.956Z,10.77
2023-01-19T10:51:33.252Z,7.50
2023-01-19T10:54:03.506Z,10.55
2023-01-19T10:56:34.303Z,11.60
2023-01-19T10:59:04.342Z,6.05
2023-01-19T11:01:37.114Z,8.18
2023-01-19T11:04:23.740Z,8.70
2023-01-19T11:06:52.304Z,7.97
2023-01-19T11:09:23.566Z,9.80
2023-01-19T11:11:53.539Z,9.65
2023-01-19T11:14:24.328Z,12.93
2023-01-19T11:16:57.472Z,9.80
2023-01-19T11:19:30.669Z,15.98
2023-01-19T11:22:21.852Z,7.30
2023-01-19T11:24:50.980Z,4.43
2023-01-19T11:27:21.255Z,9.20
2023-01-19T11:29:58.458Z,13.30
2023-01-19T11:32:29.342Z,11.57
2023-01-19T11:34:57.518Z,7.97
2023-01-19T11:37:34.614Z,6.10
2023-01-19T11:40:07.169Z,7.57
2023-01-19T11:42:37.319Z,10.05
2023-01-19T11:45:13.152Z,7.32
2023-01-19T11:47:47.352Z,4.63
2023-01-19T11:50:23.766Z,5.15
2023-01-19T11:52:59.156Z,7.20
2023-01-19T11:55:37.672Z,12.68
2023-01-19T11:58:06.832Z,12.55
2023-01-19T12:00:39.684Z,13.57
2023-01-19T12:03:18.464Z,13.27
2023-01-19T12:05:49.375Z,6.40
2023-01-19T12:08:23.466Z,13.60
2023-01-19T12:10:54.286Z,10.05
2023-01-19T12:13:24.385Z,13.77
2023-01-19T12:15:57.969Z,11.85
2023-01-19T12:18:36.895Z,8.18
2023-01-19T12:21:05.130Z,4.88
2023-01-19T12:23:45.870Z,6.10
2023-01-19T12:26:27.991Z,9.57
2023-01-19T12:29:01.197Z,8.13
2023-01-19T12:31:29.644Z,6.78
2023-01-19T12:34:31.471Z,6.22
2023-01-19T12:37:04.786Z,8.93
2023-01-19T12:39:35.456Z,11.77
2023-01-19T12:42:13.870Z,8.68
2023-01-19T12:44:43.701Z,8.07
2023-01-19T12:47:24.384Z,6.05
2023-01-19T12:49:59.583Z,8.30
2023-01-19T12:52:34.134Z,5.60
2023-01-19T12:55:08.036Z,5.20
2023-01-19T12:57:40.300Z,10.82
2023-01-19T13:00:30.113Z,21.20
2023-01-19T13:02:59.896Z,8.32
2023-01-19T13:05:51.393Z,6.00
2023-01-19T13:08:29.887Z,9.20
2023-01-19T13:11:23.786Z,12.45
2023-01-19T13:14:35.442Z,7.30
2023-01-19T13:17:22.351Z,7.85
2023-01-19T13:20:04.529Z,12.60
2023-01-19T13:23:10.874Z,10.00
2023-01-19T13:25:40.932Z,8.10
2023-01-19T13:28:12.144Z,12.38
2023-01-19T13:30:54.209Z,5.72
2023-01-19T13:33:25.827Z,7.30
2023-01-19T13:35:56.985Z,8.13
2023-01-19T13:38:27.212Z,7.82
2023-01-19T13:40:59.969Z,7.60
2023-01-19T13:43:33.839Z,8.43
2023-01-19T13:46:03.674Z,9.05
2023-01-19T13:48:33.121Z,8.77
2023-01-19T13:51:06.848Z,9.18
2023-01-19T13:53:36.612Z,6.68
2023-01-19T13:56:16.709Z,5.90
2023-01-19T13:58:45.081Z,6.95
2023-01-19T14:01:23.879Z,5.90
2023-01-19T14:03:53.136Z,6.18
2023-01-19T14:06:32.446Z,5.68
2023-01-19T14:09:24.500Z,6.45
2023-01-19T14:12:25.756Z,7.88
2023-01-19T14:14:54.188Z,8.23
2023-01-19T14:17:27.764Z,6.18
2023-01-19T14:19:57.959Z,6.80
2023-01-19T14:22:40.908Z,6.70
2023-01-19T14:25:32.192Z,5.78
2023-01-19T14:28:39.593Z,4.90
2023-01-19T14:31:22.342Z,5.13
2023-01-19T14:33:52.654Z,10.05
2023-01-19T14:36:29.028Z,7.05
2023-01-19T14:38:59.868Z,6.25
2023-01-19T14:41:32.496Z,4.57
2023-01-19T14:44:03.348Z,6.47
2023-01-19T14:46:31.565Z,9.68
2023-01-19T14:49:04.126Z,4.28
2023-01-19T14:51:33.125Z,10.93
2023-01-19T14:54:03.546Z,5.65
2023-01-19T14:56:34.126Z,7.00
2023-01-19T14:59:09.957Z,2.90
2023-01-19T15:01:38.605Z,5.00
2023-01-19T15:04:06.930Z,2.78
2023-01-19T15:06:40.423Z,8.02
2023-01-19T15:09:11.287Z,6.25
2023-01-19T15:11:39.603Z,3.78
2023-01-19T15:14:13.507Z,4.85
2023-01-19T15:16:42.267Z,6.97
2023-01-19T15:19:12.889Z,9.00
2023-01-19T15:21:42.620Z,4.78
2023-01-19T15:24:12.015Z,5.45
2023-01-19T15:26:42.744Z,4.00
2023-01-19T15:29:27.393Z,7.65
2023-01-19T15:31:55.617Z,4.50
2023-01-19T15:34:23.731Z,5.72
2023-01-19T15:36:51.967Z,9.60
2023-01-19T15:39:21.739Z,10.75
2023-01-19T15:41:49.827Z,4.97
2023-01-19T15:44:18.048Z,4.63
2023-01-19T15:46:47.602Z,8.63
2023-01-19T15:49:16.061Z,2.78
2023-01-19T15:51:44.194Z,3.25
2023-01-19T15:54:15.349Z,6.55
2023-01-19T15:56:44.095Z,4.82
2023-01-19T15:59:12.636Z,4.10
2023-01-19T16:01:41.707Z,9.75
2023-01-19T16:04:12.276Z,3.33
2023-01-19T16:06:40.444Z,6.00
2023-01-19T16:09:08.684Z,3.53
2023-01-19T16:11:37.838Z,5.93
2023-01-19T16:14:05.927Z,5.20
2023-01-19T16:16:34.615Z,7.72
2023-01-19T16:19:02.933Z,5.25
2023-01-19T16:21:32.850Z,9.40
2023-01-19T16:24:01.144Z,9.48
2023-01-19T16:26:32.680Z,8.60
2023-01-19T16:31:30.487Z,8.55
2023-01-19T16:33:59.109Z,6.28
2023-01-19T16:36:29.286Z,5.65
2023-01-19T16:39:01.518Z,5.95
2023-01-19T16:41:30.502Z,6.72
2023-01-19T16:44:00.461Z,3.67
2023-01-19T16:46:32.642Z,4.47
2023-01-19T16:49:01.889Z,8.25
2023-01-19T16:51:30.369Z,13.88
2023-01-19T16:54:00.411Z,12.32
2023-01-19T16:56:29.129Z,10.45
2023-01-19T16:58:58.397Z,6.65
2023-01-19T17:01:28.051Z,6.75
2023-01-19T17:03:57.028Z,4.70
2023-01-19T17:06:25.749Z,11.65
2023-01-19T17:08:54.606Z,5.93
2023-01-19T17:11:25.335Z,6.57
2023-01-19T17:13:55.414Z,11.10
2023-01-19T17:16:24.366Z,7.70
2023-01-19T17:18:52.647Z,9.13
2023-01-19T17:21:21.625Z,9.23
2023-01-19T17:23:51.791Z,9.27
2023-01-19T17:26:19.935Z,14.45
2023-01-19T17:28:49.586Z,16.15
2023-01-19T17:31:19.350Z,12.68
2023-01-19T17:33:49.284Z,15.55
2023-01-19T17:36:20.580Z,9.57
2023-01-19T17:38:48.756Z,9.23
2023-01-19T17:41:18.675Z,13.20
2023-01-19T17:43:47.628Z,15.07
2023-01-19T17:46:17.856Z,11.98
2023-01-19T17:48:46.132Z,12.68
2023-01-19T17:51:14.526Z,17.17
2023-01-19T17:53:43.100Z,15.88
2023-01-19T17:56:14.321Z,17.85
2023-01-19T17:58:43.359Z,14.32
2023-01-19T18:01:14.129Z,18.63
2023-01-19T18:03:44.192Z,14.93
2023-01-19T18:06:12.803Z,13.18
2023-01-19T18:08:42.116Z,12.60
2023-01-19T18:11:11.664Z,9.55
2023-01-19T18:13:40.571Z,18.85
2023-01-19T18:16:10.719Z,13.90
2023-01-19T18:18:39.837Z,15.27
2023-01-19T18:21:12.321Z,11.93
2023-01-19T18:23:40.809Z,16.58
2023-01-19T18:26:11.820Z,10.45
2023-01-19T18:28:40.145Z,11.13
2023-01-19T18:31:09.049Z,10.07
2023-01-19T18:33:37.903Z,16.92
2023-01-19T18:36:07.351Z,15.85
2023-01-19T18:38:37.524Z,17.08
2023-01-19T18:41:07.947Z,15.00
2023-01-19T18:43:36.331Z,16.98
2023-01-19T18:46:04.656Z,16.02
2023-01-19T18:48:32.876Z,20.85
2023-01-19T18:51:03.426Z,19.83
2023-01-19T18:53:32.897Z,15.75
2023-01-19T18:56:05.502Z,20.13
2023-01-19T18:58:37.494Z,19.70
2023-01-19T19:01:06.484Z,15.02
2023-01-19T19:03:34.668Z,18.08
2023-01-19T19:06:04.343Z,16.70
2023-01-19T19:08:32.472Z,19.65
2023-01-19T19:11:02.193Z,21.45
2023-01-19T19:13:30.393Z,16.30
2023-01-19T19:16:04.356Z,18.83
2023-01-19T19:18:32.540Z,21.60
2023-01-19T19:21:00.739Z,17.20
2023-01-19T19:23:29.004Z,17.33
2023-01-19T19:26:04.768Z,19.38
2023-01-19T19:28:33.522Z,12.52
2023-01-19T19:31:07.028Z,18.10
2023-01-19T19:33:35.897Z,15.80
2023-01-19T19:36:04.931Z,15.20
2023-01-19T19:38:33.656Z,16.90
2023-01-19T19:41:07.648Z,18.95
2023-01-19T19:43:37.050Z,14.48
2023-01-19T19:46:07.543Z,13.10
2023-01-19T19:48:39.047Z,18.17
2023-01-19T19:51:18.139Z,16.63
2023-01-19T19:53:51.068Z,14.80
2023-01-19T19:56:23.337Z,21.23
2023-01-19T19:58:53.262Z,17.38
2023-01-19T20:01:26.038Z,23.98
2023-01-19T20:03:55.756Z,21.48
2023-01-19T20:06:26.220Z,22.35
2023-01-19T20:08:55.862Z,22.83
2023-01-19T20:11:28.370Z,19.17
2023-01-19T20:13:56.886Z,21.15
2023-01-19T20:16:25.411Z,20.95
2023-01-19T20:18:55.355Z,21.23
2023-01-19T20:21:26.074Z,17.58
2023-01-19T20:23:55.470Z,22.98
2023-01-19T20:26:27.614Z,16.33
2023-01-19T20:28:59.945Z,23.20
2023-01-19T20:31:29.895Z,15.77
2023-01-19T20:34:00.547Z,18.63
2023-01-19T20:36:29.131Z,17.92
2023-01-19T20:38:58.090Z,15.30
2023-01-19T20:41:28.984Z,19.42
2023-01-19T20:43:57.073Z,18.83
2023-01-19T20:46:25.214Z,17.75
2023-01-19T20:48:54.827Z,18.08
2023-01-19T20:51:24.305Z,21.65
2023-01-19T20:53:52.446Z,23.85
2023-01-19T20:56:20.648Z,19.75
2023-01-19T20:58:50.828Z,23.08
2023-01-19T21:01:21.641Z,26.67
2023-01-19T21:03:50.582Z,22.92
2023-01-19T21:06:19.689Z,21.63
2023-01-19T21:08:49.786Z,22.58
2023-01-19T21:11:20.970Z,22.60
2023-01-19T21:13:55.452Z,19.98
2023-01-19T21:16:24.856Z,20.23
2023-01-19T21:18:53.920Z,26.73
2023-01-19T21:21:30.475Z,17.63
2023-01-19T21:24:01.090Z,23.02
2023-01-19T21:26:31.091Z,23.13
2023-01-19T21:29:01.724Z,18.75
2023-01-19T21:31:30.544Z,20.83
2023-01-19T21:33:59.203Z,23.00
2023-01-19T21:36:27.948Z,16.45
2023-01-19T21:39:00.863Z,17.08
2023-01-19T21:41:31.163Z,17.58
2023-01-19T21:44:01.567Z,16.73
2023-01-19T21:46:30.648Z,12.67
2023-01-19T21:49:00.208Z,16.00
2023-01-19T21:51:28.683Z,14.57
2023-01-19T21:53:59.792Z,16.10
2023-01-19T21:56:28.928Z,14.45
2023-01-19T21:58:58.071Z,11.25
2023-01-19T22:01:27.910Z,14.13
2023-01-19T22:03:57.354Z,13.00
2023-01-19T22:06:27.472Z,16.52
2023-01-19T22:08:58.024Z,13.10
2023-01-19T22:11:26.165Z,12.63
2023-01-19T22:13:54.622Z,13.13
2023-01-19T22:16:24.124Z,13.50
2023-01-19T22:18:57.641Z,16.23
2023-01-19T22:21:27.349Z,16.92
2023-01-19T22:23:59.115Z,15.07
2023-01-19T22:26:28.330Z,11.85
2023-01-19T22:28:58.012Z,10.80
2023-01-19T22:31:28.155Z,11.63
2023-01-19T22:33:58.228Z,13.40
2023-01-19T22:36:28.378Z,15.13
2023-01-19T22:38:57.782Z,7.88
2023-01-19T22:41:31.287Z,13.32
2023-01-19T22:44:01.251Z,13.82
2023-01-19T22:46:31.365Z,11.05
2023-01-19T22:49:01.480Z,12.18
2023-01-19T22:51:31.193Z,13.57
2023-01-19T22:53:59.452Z,15.07
2023-01-19T22:56:29.296Z,11.93
2023-01-19T22:58:58.675Z,17.48
2023-01-19T23:01:28.561Z,11.38
2023-01-19T23:03:57.711Z,10.25
2023-01-19T23:06:29.174Z,14.93
2023-01-19T23:08:59.966Z,16.70
2023-01-19T23:11:30.367Z,12.18
2023-01-19T23:13:59.432Z,16.93
2023-01-19T23:16:27.789Z,15.30
2023-01-19T23:18:57.174Z,16.45
2023-01-19T23:21:29.029Z,16.45
2023-01-19T23:23:58.119Z,22.48
2023-01-19T23:26:27.053Z,16.85
2023-01-19T23:28:56.902Z,22.13
2023-01-19T23:31:27.232Z,15.20
2023-01-19T23:33:57.141Z,24.87
2023-01-19T23:36:28.731Z,19.45
2023-01-19T23:39:00.312Z,18.63
2023-01-19T23:41:30.411Z,21.80
2023-01-19T23:43:58.630Z,21.05
2023-01-19T23:46:26.946Z,17.98
2023-01-19T23:48:55.241Z,24.25
2023-01-19T23:51:27.410Z,18.08
2023-01-19T23:53:55.958Z,16.85
2023-01-19T23:56:25.550Z,16.23
2023-01-19T23:58:56.346Z,16.73
